Rechercher aéroport 
image banner adimage banner adimage banner ad
image banner ad

4PA8 - Russo Airstrip

Situé à Pipersville, United States

ICAO - 4PA8, IATA -

Données fournies par Airmate  

Information générale

Coordonnées: N40°25'58" W75°8'59"
Élévation : 400 feet MSL.
Variation magnétique : -12° East
Voir autres Aéroports à Pennsylvania

Données opérationnelles

Special qualification required
Heure actuelle UTC:
Heure actuelle locale:
Météo à : KDYL - Doylestown ( 11 km )
METAR: KDYL 150654Z AUTO 24003KT 10SM OVC065 18/17 A2979 RMK AO2 RAE01 SLP082 P0000 T01830167
Voir NOTAMs / SUP AIP / TFR affectant cet aéroport [VIEW]
Fréquences de communication: [VIEW]

Pistes:

Identifiant RWYQFULongueur (ft)Largeur (ft)SurfaceLDA (ft)
101500100GRASS
281500100GRASS

Coordonnées de l'aéroport

Adresse: Pipersville United States

Vue satellite de 4PA8